createdAt,value
2019-06-01T00:02:27.451Z,14.8
2019-06-01T00:07:27.515Z,14.8
2019-06-01T00:12:27.777Z,14.7
2019-06-01T00:17:28.391Z,14.6
2019-06-01T00:22:28.024Z,14.6
2019-06-01T00:27:28.442Z,14.5
2019-06-01T00:32:28.193Z,14.5
2019-06-01T00:37:28.240Z,14.4
2019-06-01T00:42:27.967Z,14.3
2019-06-01T00:47:27.421Z,14.3
2019-06-01T00:52:27.672Z,14.3
2019-06-01T00:57:28.158Z,14.2
2019-06-01T01:02:27.686Z,14.1
2019-06-01T01:07:29.567Z,14.1
2019-06-01T01:12:28.026Z,14.0
2019-06-01T01:17:27.991Z,13.9
2019-06-01T01:22:27.230Z,13.9
2019-06-01T01:27:28.086Z,13.9
2019-06-01T01:32:27.688Z,13.9
2019-06-01T01:37:28.153Z,13.7
2019-06-01T01:42:27.592Z,13.7
2019-06-01T01:47:28.956Z,13.6
2019-06-01T01:52:27.441Z,13.5
2019-06-01T01:57:28.287Z,13.4
2019-06-01T02:02:27.652Z,13.4
2019-06-01T02:07:28.487Z,13.4
2019-06-01T02:12:28.439Z,13.3
2019-06-01T02:17:28.418Z,13.4
2019-06-01T02:22:27.952Z,13.3
2019-06-01T02:27:28.236Z,13.3
2019-06-01T02:32:27.750Z,13.2
2019-06-01T02:37:28.385Z,13.0
2019-06-01T02:42:27.545Z,13.1
2019-06-01T02:47:27.462Z,13.0
2019-06-01T02:52:28.298Z,13.0
2019-06-01T02:57:28.034Z,13.0
2019-06-01T03:02:28.470Z,13.0
2019-06-01T03:07:29.457Z,12.9
2019-06-01T03:12:29.660Z,12.9
2019-06-01T03:17:27.960Z,12.9
2019-06-01T03:22:29.156Z,12.9
2019-06-01T03:27:28.023Z,12.8
2019-06-01T03:32:35.659Z,12.8
2019-06-01T03:37:27.724Z,12.8
2019-06-01T03:42:27.611Z,12.8
2019-06-01T03:47:28.646Z,12.8
2019-06-01T03:52:28.319Z,12.8
2019-06-01T03:57:28.894Z,12.9
2019-06-01T04:02:32.981Z,12.9
2019-06-01T04:07:29.812Z,12.9
2019-06-01T04:12:27.610Z,13.0
2019-06-01T04:17:28.128Z,13.1
2019-06-01T04:22:29.188Z,13.1
2019-06-01T04:27:28.409Z,13.4
2019-06-01T04:32:28.969Z,13.6
2019-06-01T04:37:29.372Z,14.0
2019-06-01T04:42:27.878Z,14.2
2019-06-01T04:47:28.323Z,14.5
2019-06-01T04:52:27.999Z,14.7
2019-06-01T04:57:28.469Z,14.9
2019-06-01T05:02:28.995Z,15.1
2019-06-01T05:07:28.387Z,15.3
2019-06-01T05:12:27.540Z,15.7
2019-06-01T05:17:29.085Z,15.7
2019-06-01T05:22:27.787Z,16.2
2019-06-01T05:27:28.952Z,16.2
2019-06-01T05:32:28.044Z,16.5
2019-06-01T05:37:28.009Z,16.8
2019-06-01T05:42:27.810Z,17.0
2019-06-01T05:47:28.469Z,17.2
2019-06-01T05:52:27.715Z,17.5
2019-06-01T05:57:28.811Z,17.8
2019-06-01T06:02:29.191Z,18.0
2019-06-01T06:07:27.575Z,18.4
2019-06-01T06:12:28.093Z,18.4
2019-06-01T06:17:28.642Z,18.6
2019-06-01T06:22:28.241Z,18.9
2019-06-01T06:27:29.241Z,19.4
2019-06-01T06:32:27.572Z,19.7
2019-06-01T06:37:27.688Z,19.7
2019-06-01T06:42:28.146Z,20.0
2019-06-01T06:47:28.051Z,20.3
2019-06-01T06:52:28.693Z,20.6
2019-06-01T06:57:27.946Z,20.9
2019-06-01T07:02:28.751Z,21.2
2019-06-01T07:07:28.230Z,21.5
2019-06-01T07:12:27.858Z,21.9
2019-06-01T07:17:28.207Z,22.2
2019-06-01T07:22:27.975Z,22.5
2019-06-01T07:27:28.283Z,22.8
2019-06-01T07:32:28.598Z,23.4
2019-06-01T07:37:28.618Z,23.3
2019-06-01T07:42:29.447Z,23.8
2019-06-01T07:47:29.163Z,24.5
2019-06-01T07:52:29.731Z,24.5
2019-06-01T07:57:29.663Z,24.9
2019-06-01T08:02:30.751Z,25.3
2019-06-01T08:07:29.214Z,26.0
2019-06-01T08:12:29.607Z,26.1
2019-06-01T08:17:30.081Z,26.1
2019-06-01T08:22:28.520Z,26.3
2019-06-01T08:27:28.456Z,26.5
2019-06-01T08:32:28.721Z,26.9
2019-06-01T08:37:29.276Z,27.2
2019-06-01T08:42:27.555Z,27.5
2019-06-01T08:47:28.196Z,27.7
2019-06-01T08:52:28.304Z,28.0
2019-06-01T08:57:28.555Z,28.4
2019-06-01T09:02:29.097Z,28.6
2019-06-01T09:07:29.032Z,28.5
2019-06-01T09:12:29.220Z,28.6
2019-06-01T09:17:29.395Z,28.5
2019-06-01T09:22:29.390Z,28.9
2019-06-01T09:27:28.303Z,29.5
2019-06-01T09:32:27.889Z,29.7
2019-06-01T09:37:28.369Z,29.7
2019-06-01T09:42:28.735Z,30.1
2019-06-01T09:47:27.490Z,30.1
2019-06-01T09:52:27.530Z,30.3
2019-06-01T09:57:29.818Z,30.9
2019-06-01T10:02:28.083Z,30.8
2019-06-01T10:07:29.215Z,31.0
2019-06-01T10:12:27.554Z,31.0
2019-06-01T10:17:28.269Z,31.3
2019-06-01T10:22:28.480Z,31.5
2019-06-01T10:27:28.415Z,31.7
2019-06-01T10:32:27.910Z,31.8
2019-06-01T10:37:29.364Z,32.0
2019-06-01T10:42:28.094Z,31.8
2019-06-01T10:47:28.221Z,31.6
2019-06-01T10:52:28.144Z,32.0
2019-06-01T10:57:27.902Z,32.2
2019-06-01T11:02:27.987Z,32.4
2019-06-01T11:07:27.938Z,32.6
2019-06-01T11:12:28.531Z,32.6
2019-06-01T11:17:28.256Z,32.6
2019-06-01T11:22:28.362Z,32.9
2019-06-01T11:27:28.295Z,33.1
2019-06-01T11:32:28.693Z,33.1
2019-06-01T11:37:27.905Z,33.1
2019-06-01T11:42:28.654Z,33.0
2019-06-01T11:47:28.514Z,33.0
2019-06-01T11:52:28.376Z,33.3
2019-06-01T11:57:28.342Z,33.5
2019-06-01T12:02:28.733Z,33.4
2019-06-01T12:07:28.105Z,33.4
2019-06-01T12:12:27.278Z,33.6
2019-06-01T12:17:28.719Z,33.7
2019-06-01T12:22:29.045Z,33.8
2019-06-01T12:27:28.463Z,33.9
2019-06-01T12:32:28.242Z,34.0
2019-06-01T12:37:40.241Z,33.9
2019-06-01T12:42:27.993Z,34.0
2019-06-01T12:47:28.688Z,34.1
2019-06-01T12:52:27.812Z,34.6
2019-06-01T12:57:28.656Z,34.7
2019-06-01T13:02:27.540Z,34.7
2019-06-01T13:07:28.725Z,34.8
2019-06-01T13:12:27.984Z,34.7
2019-06-01T13:17:28.415Z,34.7
2019-06-01T13:22:28.036Z,34.8
2019-06-01T13:27:28.883Z,35.2
2019-06-01T13:32:28.259Z,35.8
2019-06-01T13:37:28.237Z,35.8
2019-06-01T13:42:27.598Z,35.7
2019-06-01T13:47:30.151Z,36.1
2019-06-01T13:52:28.382Z,36.4
2019-06-01T13:57:27.972Z,36.8
2019-06-01T14:02:28.178Z,36.3
2019-06-01T14:07:28.808Z,36.1
2019-06-01T14:12:28.228Z,36.2
2019-06-01T14:17:28.624Z,36.8
2019-06-01T14:22:28.030Z,37.2
2019-06-01T14:27:29.553Z,37.0
2019-06-01T14:32:27.930Z,37.8
2019-06-01T14:37:28.370Z,39.2
2019-06-01T14:42:28.673Z,40.6
2019-06-01T14:47:28.226Z,44.1
2019-06-01T14:52:27.892Z,46.0
2019-06-01T14:57:28.414Z,47.4
2019-06-01T15:02:28.774Z,47.3
2019-06-01T15:07:28.724Z,48.1
2019-06-01T15:12:28.924Z,49.6
2019-06-01T15:17:28.597Z,53.0
2019-06-01T15:22:29.707Z,53.0
2019-06-01T15:27:27.781Z,54.5
2019-06-01T15:32:28.394Z,55.6
2019-06-01T15:37:28.278Z,56.7
2019-06-01T15:42:27.775Z,57.3
2019-06-01T15:47:28.791Z,57.7
2019-06-01T15:52:27.919Z,58.1
2019-06-01T15:57:28.179Z,58.3
2019-06-01T16:02:28.410Z,59.1
2019-06-01T16:07:28.330Z,59.6
2019-06-01T16:12:28.046Z,60.3
2019-06-01T16:17:28.830Z,60.5
2019-06-01T16:22:27.947Z,61.0
2019-06-01T16:27:27.753Z,61.1
2019-06-01T16:32:28.229Z,61.4
2019-06-01T16:37:28.566Z,61.4
2019-06-01T16:42:29.262Z,61.4
2019-06-01T16:47:27.703Z,60.9
2019-06-01T16:52:28.343Z,60.9
2019-06-01T16:57:28.405Z,61.1
2019-06-01T17:02:27.998Z,61.0
2019-06-01T17:07:28.079Z,60.9
2019-06-01T17:12:27.877Z,60.9
2019-06-01T17:17:28.417Z,60.2
2019-06-01T17:22:29.182Z,60.1
2019-06-01T17:27:28.565Z,60.1
2019-06-01T17:32:28.209Z,59.7
2019-06-01T17:37:27.907Z,59.1
2019-06-01T17:42:27.898Z,58.6
2019-06-01T17:47:27.647Z,58.0
2019-06-01T17:52:28.486Z,57.3
2019-06-01T17:57:28.686Z,55.8
2019-06-01T18:02:28.864Z,55.8
2019-06-01T18:07:28.215Z,53.5
2019-06-01T18:12:31.143Z,46.5
2019-06-01T18:17:28.988Z,41.9
2019-06-01T18:22:30.231Z,38.9
2019-06-01T18:27:27.608Z,35.4
2019-06-01T18:32:29.772Z,35.3
2019-06-01T18:37:28.412Z,33.0
2019-06-01T18:42:27.863Z,33.0
2019-06-01T18:47:32.085Z,32.1
2019-06-01T18:52:29.395Z,31.3
2019-06-01T18:57:27.995Z,30.6
2019-06-01T19:02:29.105Z,29.3
2019-06-01T19:07:28.989Z,29.2
2019-06-01T19:12:28.002Z,28.7
2019-06-01T19:17:29.285Z,27.9
2019-06-01T19:22:28.435Z,27.3
2019-06-01T19:27:28.112Z,26.6
2019-06-01T19:32:28.385Z,25.5
2019-06-01T19:37:27.888Z,25.4
2019-06-01T19:42:27.740Z,25.0
2019-06-01T19:47:28.870Z,24.6
2019-06-01T19:52:27.558Z,23.8
2019-06-01T19:57:27.996Z,23.7
2019-06-01T20:02:33.563Z,23.5
2019-06-01T20:07:28.476Z,23.1
2019-06-01T20:12:27.782Z,22.7
2019-06-01T20:17:28.783Z,22.4
2019-06-01T20:22:28.353Z,22.0
2019-06-01T20:27:27.855Z,21.7
2019-06-01T20:32:27.906Z,21.5
2019-06-01T20:37:28.838Z,21.3
2019-06-01T20:42:32.210Z,21.1
2019-06-01T20:47:27.734Z,21.0
2019-06-01T20:52:27.664Z,20.7
2019-06-01T20:57:28.762Z,20.7
2019-06-01T21:02:28.203Z,20.6
2019-06-01T21:07:28.383Z,20.6
2019-06-01T21:12:43.898Z,20.3
2019-06-01T21:17:28.459Z,20.3
2019-06-01T21:22:27.659Z,20.2
2019-06-01T21:27:28.226Z,20.0
2019-06-01T21:32:28.670Z,19.9
2019-06-01T21:37:28.666Z,19.7
2019-06-01T21:42:29.503Z,19.6
2019-06-01T21:47:27.833Z,19.4
2019-06-01T21:52:27.869Z,19.1
2019-06-01T21:57:27.812Z,19.1
2019-06-01T22:02:28.116Z,19.0
2019-06-01T22:07:27.988Z,19.0
2019-06-01T22:12:27.842Z,18.9
2019-06-01T22:22:40.624Z,18.5
2019-06-01T22:27:39.455Z,18.5
2019-06-01T22:32:39.556Z,18.5
2019-06-01T22:37:39.233Z,18.4
2019-06-01T22:42:39.631Z,18.3
2019-06-01T22:47:38.946Z,18.2
2019-06-01T22:52:39.975Z,18.1
2019-06-01T22:57:42.969Z,18.0
2019-06-01T23:02:39.384Z,17.9
2019-06-01T23:07:39.445Z,17.8
2019-06-01T23:12:27.714Z,17.7
2019-06-01T23:17:28.306Z,17.7
2019-06-01T23:22:28.155Z,17.5
2019-06-01T23:27:28.348Z,17.4
2019-06-01T23:32:28.488Z,17.4
2019-06-01T23:37:28.757Z,17.2
2019-06-01T23:42:28.693Z,17.1
2019-06-01T23:47:29.224Z,16.9
2019-06-01T23:52:27.986Z,16.9
2019-06-01T23:57:27.933Z,16.8
